sensor_id;sensor_type;location;lat;lon;timestamp;pressure;altitude;pressure_sealevel;temperature
24160;BMP280;62385;41.594;23.808;2022-07-26T00:02:06;95426.63;;;20.47
24160;BMP280;62385;41.594;23.808;2022-07-26T00:04:31;95417.34;;;20.45
24160;BMP280;62385;41.594;23.808;2022-07-26T00:06:57;95431.75;;;20.37
24160;BMP280;62385;41.594;23.808;2022-07-26T00:09:23;95416.69;;;20.38
24160;BMP280;62385;41.594;23.808;2022-07-26T00:11:48;95430.78;;;20.54
24160;BMP280;62385;41.594;23.808;2022-07-26T00:14:14;95422.09;;;20.25
24160;BMP280;62385;41.594;23.808;2022-07-26T00:16:40;95427.75;;;20.33
24160;BMP280;62385;41.594;23.808;2022-07-26T00:19:06;95430.03;;;20.34
24160;BMP280;62385;41.594;23.808;2022-07-26T00:21:33;95420.59;;;20.24
24160;BMP280;62385;41.594;23.808;2022-07-26T00:24:02;95412.78;;;20.03
24160;BMP280;62385;41.594;23.808;2022-07-26T00:26:28;95417.09;;;19.99
24160;BMP280;62385;41.594;23.808;2022-07-26T00:28:53;95412.91;;;19.92
24160;BMP280;62385;41.594;23.808;2022-07-26T00:31:19;95416.69;;;19.89
24160;BMP280;62385;41.594;23.808;2022-07-26T00:33:45;95392.41;;;19.82
24160;BMP280;62385;41.594;23.808;2022-07-26T00:36:10;95405.44;;;19.87
24160;BMP280;62385;41.594;23.808;2022-07-26T00:38:36;95413.97;;;19.83
24160;BMP280;62385;41.594;23.808;2022-07-26T00:41:03;95412.03;;;19.78
24160;BMP280;62385;41.594;23.808;2022-07-26T00:43:29;95405.38;;;19.92
24160;BMP280;62385;41.594;23.808;2022-07-26T00:45:55;95400.47;;;19.80
24160;BMP280;62385;41.594;23.808;2022-07-26T00:48:21;95392.41;;;19.82
24160;BMP280;62385;41.594;23.808;2022-07-26T00:50:47;95395.13;;;19.87
24160;BMP280;62385;41.594;23.808;2022-07-26T00:53:12;95407.31;;;19.98
24160;BMP280;62385;41.594;23.808;2022-07-26T00:55:38;95416.47;;;20.12
24160;BMP280;62385;41.594;23.808;2022-07-26T00:58:04;95408.03;;;19.73
24160;BMP280;62385;41.594;23.808;2022-07-26T01:00:31;95409.19;;;19.59
24160;BMP280;62385;41.594;23.808;2022-07-26T01:02:57;95411.81;;;19.76
24160;BMP280;62385;41.594;23.808;2022-07-26T01:05:25;95413.09;;;19.69
24160;BMP280;62385;41.594;23.808;2022-07-26T01:07:52;95412.78;;;19.48
24160;BMP280;62385;41.594;23.808;2022-07-26T01:10:18;95413.22;;;19.58
24160;BMP280;62385;41.594;23.808;2022-07-26T01:12:44;95421.06;;;19.48
24160;BMP280;62385;41.594;23.808;2022-07-26T01:15:12;95399.22;;;19.50
24160;BMP280;62385;41.594;23.808;2022-07-26T01:17:39;95411.09;;;19.70
24160;BMP280;62385;41.594;23.808;2022-07-26T01:20:06;95395.22;;;19.46
24160;BMP280;62385;41.594;23.808;2022-07-26T01:22:32;95415.66;;;19.67
24160;BMP280;62385;41.594;23.808;2022-07-26T01:24:58;95402.66;;;19.62
24160;BMP280;62385;41.594;23.808;2022-07-26T01:27:23;95409.63;;;19.63
24160;BMP280;62385;41.594;23.808;2022-07-26T01:29:49;95401.44;;;19.57
24160;BMP280;62385;41.594;23.808;2022-07-26T01:32:17;95398.84;;;19.65
24160;BMP280;62385;41.594;23.808;2022-07-26T01:34:43;95398.31;;;19.36
24160;BMP280;62385;41.594;23.808;2022-07-26T01:37:08;95399.81;;;19.07
24160;BMP280;62385;41.594;23.808;2022-07-26T01:39:34;95401.06;;;19.00
24160;BMP280;62385;41.594;23.808;2022-07-26T01:42:00;95390.50;;;19.10
24160;BMP280;62385;41.594;23.808;2022-07-26T01:44:26;95379.25;;;19.08
24160;BMP280;62385;41.594;23.808;2022-07-26T01:46:51;95382.72;;;19.14
24160;BMP280;62385;41.594;23.808;2022-07-26T01:49:18;95382.50;;;19.06
24160;BMP280;62385;41.594;23.808;2022-07-26T01:51:43;95391.00;;;19.08
24160;BMP280;62385;41.594;23.808;2022-07-26T01:54:11;95393.94;;;19.22
24160;BMP280;62385;41.594;23.808;2022-07-26T01:56:37;95396.59;;;19.33
24160;BMP280;62385;41.594;23.808;2022-07-26T01:59:02;95386.28;;;19.39
24160;BMP280;62385;41.594;23.808;2022-07-26T02:01:28;95401.53;;;19.40
24160;BMP280;62385;41.594;23.808;2022-07-26T02:03:54;95386.56;;;19.36
24160;BMP280;62385;41.594;23.808;2022-07-26T02:06:19;95386.94;;;19.21
24160;BMP280;62385;41.594;23.808;2022-07-26T02:08:45;95400.41;;;19.30
24160;BMP280;62385;41.594;23.808;2022-07-26T02:11:10;95408.09;;;19.37
24160;BMP280;62385;41.594;23.808;2022-07-26T02:13:39;95393.00;;;19.14
24160;BMP280;62385;41.594;23.808;2022-07-26T02:16:07;95390.94;;;19.20
24160;BMP280;62385;41.594;23.808;2022-07-26T02:18:33;95401.28;;;19.08
24160;BMP280;62385;41.594;23.808;2022-07-26T02:21:01;95398.03;;;19.09
24160;BMP280;62385;41.594;23.808;2022-07-26T02:23:27;95410.72;;;19.18
24160;BMP280;62385;41.594;23.808;2022-07-26T02:25:54;95405.03;;;19.10
24160;BMP280;62385;41.594;23.808;2022-07-26T02:28:20;95391.13;;;18.91
24160;BMP280;62385;41.594;23.808;2022-07-26T02:30:47;95393.28;;;19.04
24160;BMP280;62385;41.594;23.808;2022-07-26T02:33:13;95397.44;;;18.81
24160;BMP280;62385;41.594;23.808;2022-07-26T02:35:40;95395.88;;;18.91
24160;BMP280;62385;41.594;23.808;2022-07-26T02:38:11;95393.16;;;18.85
24160;BMP280;62385;41.594;23.808;2022-07-26T02:40:37;95402.59;;;19.01
24160;BMP280;62385;41.594;23.808;2022-07-26T02:43:04;95407.47;;;18.84
24160;BMP280;62385;41.594;23.808;2022-07-26T02:45:30;95402.03;;;18.61
24160;BMP280;62385;41.594;23.808;2022-07-26T02:47:56;95407.59;;;18.50
24160;BMP280;62385;41.594;23.808;2022-07-26T02:50:24;95389.06;;;18.50
24160;BMP280;62385;41.594;23.808;2022-07-26T02:52:51;95411.38;;;19.00
24160;BMP280;62385;41.594;23.808;2022-07-26T02:55:19;95403.38;;;18.96
24160;BMP280;62385;41.594;23.808;2022-07-26T02:57:45;95388.84;;;18.96
24160;BMP280;62385;41.594;23.808;2022-07-26T03:00:12;95409.78;;;19.16
24160;BMP280;62385;41.594;23.808;2022-07-26T03:02:38;95412.56;;;19.04
24160;BMP280;62385;41.594;23.808;2022-07-26T03:05:06;95419.25;;;18.79
24160;BMP280;62385;41.594;23.808;2022-07-26T03:07:32;95420.91;;;18.93
24160;BMP280;62385;41.594;23.808;2022-07-26T03:09:59;95424.34;;;19.05
24160;BMP280;62385;41.594;23.808;2022-07-26T03:12:25;95416.66;;;18.92
24160;BMP280;62385;41.594;23.808;2022-07-26T03:14:51;95417.19;;;18.85
24160;BMP280;62385;41.594;23.808;2022-07-26T03:17:17;95438.16;;;18.99
24160;BMP280;62385;41.594;23.808;2022-07-26T03:19:43;95432.59;;;19.10
24160;BMP280;62385;41.594;23.808;2022-07-26T03:22:09;95435.63;;;19.01
24160;BMP280;62385;41.594;23.808;2022-07-26T03:24:36;95438.13;;;19.05
24160;BMP280;62385;41.594;23.808;2022-07-26T03:27:02;95426.19;;;18.91
24160;BMP280;62385;41.594;23.808;2022-07-26T03:29:28;95437.75;;;18.84
24160;BMP280;62385;41.594;23.808;2022-07-26T03:31:54;95423.72;;;18.82
24160;BMP280;62385;41.594;23.808;2022-07-26T03:34:20;95423.81;;;18.59
24160;BMP280;62385;41.594;23.808;2022-07-26T03:36:45;95420.34;;;18.58
24160;BMP280;62385;41.594;23.808;2022-07-26T03:39:12;95441.81;;;18.71
24160;BMP280;62385;41.594;23.808;2022-07-26T03:41:37;95449.75;;;18.81
24160;BMP280;62385;41.594;23.808;2022-07-26T03:44:03;95448.94;;;18.97
24160;BMP280;62385;41.594;23.808;2022-07-26T03:46:29;95438.44;;;18.96
24160;BMP280;62385;41.594;23.808;2022-07-26T03:48:55;95447.25;;;18.83
24160;BMP280;62385;41.594;23.808;2022-07-26T03:51:20;95428.34;;;18.56
24160;BMP280;62385;41.594;23.808;2022-07-26T03:53:47;95447.09;;;18.58
24160;BMP280;62385;41.594;23.808;2022-07-26T03:56:12;95434.03;;;18.70
24160;BMP280;62385;41.594;23.808;2022-07-26T03:59:02;95432.56;;;18.69
24160;BMP280;62385;41.594;23.808;2022-07-26T04:01:28;95446.44;;;18.93
24160;BMP280;62385;41.594;23.808;2022-07-26T04:03:54;95425.84;;;19.12
24160;BMP280;62385;41.594;23.808;2022-07-26T04:06:21;95435.81;;;19.15
24160;BMP280;62385;41.594;23.808;2022-07-26T04:08:47;95426.22;;;19.27
24160;BMP280;62385;41.594;23.808;2022-07-26T04:11:13;95447.13;;;19.47
24160;BMP280;62385;41.594;23.808;2022-07-26T04:13:38;95445.66;;;19.40
24160;BMP280;62385;41.594;23.808;2022-07-26T04:16:04;95444.16;;;19.39
24160;BMP280;62385;41.594;23.808;2022-07-26T04:18:30;95439.91;;;19.38
24160;BMP280;62385;41.594;23.808;2022-07-26T04:20:56;95439.63;;;19.48
24160;BMP280;62385;41.594;23.808;2022-07-26T04:23:22;95439.97;;;19.63
24160;BMP280;62385;41.594;23.808;2022-07-26T04:25:47;95436.38;;;19.74
24160;BMP280;62385;41.594;23.808;2022-07-26T04:28:13;95443.75;;;19.60
24160;BMP280;62385;41.594;23.808;2022-07-26T04:30:39;95443.88;;;19.79
24160;BMP280;62385;41.594;23.808;2022-07-26T04:33:05;95438.53;;;19.87
24160;BMP280;62385;41.594;23.808;2022-07-26T04:35:49;95448.31;;;19.88
24160;BMP280;62385;41.594;23.808;2022-07-26T04:38:15;95443.56;;;19.83
24160;BMP280;62385;41.594;23.808;2022-07-26T04:40:40;95448.75;;;19.92
24160;BMP280;62385;41.594;23.808;2022-07-26T04:43:08;95435.22;;;19.94
24160;BMP280;62385;41.594;23.808;2022-07-26T04:45:33;95443.16;;;20.03
24160;BMP280;62385;41.594;23.808;2022-07-26T04:48:00;95419.06;;;20.04
24160;BMP280;62385;41.594;23.808;2022-07-26T04:50:26;95446.56;;;20.09
24160;BMP280;62385;41.594;23.808;2022-07-26T04:53:13;95443.00;;;20.15
24160;BMP280;62385;41.594;23.808;2022-07-26T04:55:40;95442.06;;;20.12
24160;BMP280;62385;41.594;23.808;2022-07-26T04:58:06;95444.41;;;20.02
24160;BMP280;62385;41.594;23.808;2022-07-26T05:00:51;95431.81;;;20.07
24160;BMP280;62385;41.594;23.808;2022-07-26T05:03:17;95430.16;;;19.98
24160;BMP280;62385;41.594;23.808;2022-07-26T05:05:43;95437.63;;;20.03
24160;BMP280;62385;41.594;23.808;2022-07-26T05:08:08;95445.53;;;20.13
24160;BMP280;62385;41.594;23.808;2022-07-26T05:10:35;95438.88;;;20.27
24160;BMP280;62385;41.594;23.808;2022-07-26T05:13:03;95442.41;;;20.22
24160;BMP280;62385;41.594;23.808;2022-07-26T05:15:30;95445.78;;;20.15
24160;BMP280;62385;41.594;23.808;2022-07-26T05:18:02;95441.59;;;20.08
24160;BMP280;62385;41.594;23.808;2022-07-26T05:20:28;95444.63;;;20.29
24160;BMP280;62385;41.594;23.808;2022-07-26T05:22:54;95439.22;;;20.18
24160;BMP280;62385;41.594;23.808;2022-07-26T05:25:19;95443.63;;;20.26
24160;BMP280;62385;41.594;23.808;2022-07-26T05:27:45;95442.09;;;20.31
24160;BMP280;62385;41.594;23.808;2022-07-26T05:30:11;95446.59;;;20.34
24160;BMP280;62385;41.594;23.808;2022-07-26T05:32:37;95447.41;;;20.48
24160;BMP280;62385;41.594;23.808;2022-07-26T05:35:03;95445.81;;;20.58
24160;BMP280;62385;41.594;23.808;2022-07-26T05:37:29;95432.50;;;20.57
24160;BMP280;62385;41.594;23.808;2022-07-26T05:39:55;95450.06;;;20.59
24160;BMP280;62385;41.594;23.808;2022-07-26T05:42:20;95446.19;;;20.68
24160;BMP280;62385;41.594;23.808;2022-07-26T05:44:48;95444.75;;;20.81
24160;BMP280;62385;41.594;23.808;2022-07-26T05:47:14;95434.94;;;20.85
24160;BMP280;62385;41.594;23.808;2022-07-26T05:49:40;95425.38;;;20.86
24160;BMP280;62385;41.594;23.808;2022-07-26T05:52:05;95435.97;;;21.01
24160;BMP280;62385;41.594;23.808;2022-07-26T05:54:31;95436.75;;;21.15
24160;BMP280;62385;41.594;23.808;2022-07-26T05:56:56;95440.03;;;21.14
24160;BMP280;62385;41.594;23.808;2022-07-26T05:59:22;95423.25;;;21.12
24160;BMP280;62385;41.594;23.808;2022-07-26T06:01:47;95429.41;;;21.18
24160;BMP280;62385;41.594;23.808;2022-07-26T06:04:13;95414.28;;;21.24
24160;BMP280;62385;41.594;23.808;2022-07-26T06:06:39;95426.63;;;21.37
24160;BMP280;62385;41.594;23.808;2022-07-26T06:09:06;95422.66;;;21.32
24160;BMP280;62385;41.594;23.808;2022-07-26T06:11:31;95416.78;;;21.41
24160;BMP280;62385;41.594;23.808;2022-07-26T06:13:57;95415.06;;;21.52
24160;BMP280;62385;41.594;23.808;2022-07-26T06:16:22;95426.53;;;21.42
24160;BMP280;62385;41.594;23.808;2022-07-26T06:18:48;95415.31;;;21.54
24160;BMP280;62385;41.594;23.808;2022-07-26T06:21:14;95422.84;;;21.67
24160;BMP280;62385;41.594;23.808;2022-07-26T06:23:40;95407.41;;;21.45
24160;BMP280;62385;41.594;23.808;2022-07-26T06:26:05;95409.56;;;21.65
24160;BMP280;62385;41.594;23.808;2022-07-26T06:28:32;95410.44;;;21.73
24160;BMP280;62385;41.594;23.808;2022-07-26T06:30:58;95420.75;;;21.86
24160;BMP280;62385;41.594;23.808;2022-07-26T06:33:25;95399.59;;;21.75
24160;BMP280;62385;41.594;23.808;2022-07-26T06:35:50;95407.88;;;21.89
24160;BMP280;62385;41.594;23.808;2022-07-26T06:38:16;95420.00;;;21.99
24160;BMP280;62385;41.594;23.808;2022-07-26T06:40:42;95398.44;;;21.98
24160;BMP280;62385;41.594;23.808;2022-07-26T06:43:08;95395.84;;;22.13
24160;BMP280;62385;41.594;23.808;2022-07-26T06:45:33;95401.31;;;22.19
24160;BMP280;62385;41.594;23.808;2022-07-26T06:47:59;95392.56;;;22.15
24160;BMP280;62385;41.594;23.808;2022-07-26T06:50:25;95382.84;;;22.21
24160;BMP280;62385;41.594;23.808;2022-07-26T06:52:50;95387.13;;;22.22
24160;BMP280;62385;41.594;23.808;2022-07-26T06:55:16;95398.91;;;22.36
24160;BMP280;62385;41.594;23.808;2022-07-26T06:57:41;95396.97;;;22.45
24160;BMP280;62385;41.594;23.808;2022-07-26T07:00:08;95390.06;;;22.51
24160;BMP280;62385;41.594;23.808;2022-07-26T07:02:35;95395.69;;;22.46
24160;BMP280;62385;41.594;23.808;2022-07-26T07:05:01;95389.66;;;22.47
24160;BMP280;62385;41.594;23.808;2022-07-26T07:07:27;95382.28;;;22.50
24160;BMP280;62385;41.594;23.808;2022-07-26T07:09:52;95398.22;;;22.70
24160;BMP280;62385;41.594;23.808;2022-07-26T07:12:18;95385.44;;;22.67
24160;BMP280;62385;41.594;23.808;2022-07-26T07:14:43;95380.19;;;22.77
24160;BMP280;62385;41.594;23.808;2022-07-26T07:17:09;95386.72;;;22.87
24160;BMP280;62385;41.594;23.808;2022-07-26T07:19:35;95384.91;;;22.69
24160;BMP280;62385;41.594;23.808;2022-07-26T07:22:05;95391.09;;;22.96
24160;BMP280;62385;41.594;23.808;2022-07-26T07:24:31;95386.88;;;23.03
24160;BMP280;62385;41.594;23.808;2022-07-26T07:26:56;95397.03;;;23.00
24160;BMP280;62385;41.594;23.808;2022-07-26T07:29:24;95393.59;;;23.07
24160;BMP280;62385;41.594;23.808;2022-07-26T07:31:50;95388.22;;;23.31
24160;BMP280;62385;41.594;23.808;2022-07-26T07:34:16;95371.69;;;23.17
24160;BMP280;62385;41.594;23.808;2022-07-26T07:36:43;95372.28;;;23.23
24160;BMP280;62385;41.594;23.808;2022-07-26T07:39:08;95382.91;;;23.12
24160;BMP280;62385;41.594;23.808;2022-07-26T07:41:34;95369.03;;;23.12
24160;BMP280;62385;41.594;23.808;2022-07-26T07:44:03;95364.56;;;23.30
24160;BMP280;62385;41.594;23.808;2022-07-26T07:46:29;95364.22;;;23.33
24160;BMP280;62385;41.594;23.808;2022-07-26T07:48:54;95378.38;;;23.43
24160;BMP280;62385;41.594;23.808;2022-07-26T07:51:20;95380.25;;;23.77
24160;BMP280;62385;41.594;23.808;2022-07-26T07:53:46;95366.34;;;23.69
24160;BMP280;62385;41.594;23.808;2022-07-26T07:56:11;95368.41;;;23.76
24160;BMP280;62385;41.594;23.808;2022-07-26T07:58:37;95373.81;;;23.82
24160;BMP280;62385;41.594;23.808;2022-07-26T08:01:04;95371.91;;;23.77
24160;BMP280;62385;41.594;23.808;2022-07-26T08:03:29;95361.22;;;23.81
24160;BMP280;62385;41.594;23.808;2022-07-26T08:05:55;95367.00;;;23.91
24160;BMP280;62385;41.594;23.808;2022-07-26T08:08:21;95368.78;;;24.17
24160;BMP280;62385;41.594;23.808;2022-07-26T08:11:05;95358.59;;;24.12
24160;BMP280;62385;41.594;23.808;2022-07-26T08:13:31;95360.81;;;24.14
24160;BMP280;62385;41.594;23.808;2022-07-26T08:15:57;95363.75;;;24.08
24160;BMP280;62385;41.594;23.808;2022-07-26T08:18:23;95356.59;;;24.28
24160;BMP280;62385;41.594;23.808;2022-07-26T08:20:50;95353.16;;;24.51
24160;BMP280;62385;41.594;23.808;2022-07-26T08:23:18;95330.38;;;24.44
24160;BMP280;62385;41.594;23.808;2022-07-26T08:25:44;95323.31;;;24.43
24160;BMP280;62385;41.594;23.808;2022-07-26T08:28:09;95328.72;;;24.72
24160;BMP280;62385;41.594;23.808;2022-07-26T08:30:35;95330.03;;;24.79
24160;BMP280;62385;41.594;23.808;2022-07-26T08:33:00;95322.06;;;24.83
24160;BMP280;62385;41.594;23.808;2022-07-26T08:35:26;95318.56;;;25.13
24160;BMP280;62385;41.594;23.808;2022-07-26T08:37:55;95318.56;;;25.13
24160;BMP280;62385;41.594;23.808;2022-07-26T08:40:20;95310.97;;;25.06
24160;BMP280;62385;41.594;23.808;2022-07-26T08:42:54;95325.59;;;25.30
24160;BMP280;62385;41.594;23.808;2022-07-26T08:45:27;95314.63;;;25.24
24160;BMP280;62385;41.594;23.808;2022-07-26T08:47:54;95317.41;;;25.32
24160;BMP280;62385;41.594;23.808;2022-07-26T08:50:20;95319.59;;;25.57
24160;BMP280;62385;41.594;23.808;2022-07-26T08:52:46;95315.16;;;25.54
24160;BMP280;62385;41.594;23.808;2022-07-26T08:55:16;95323.34;;;25.44
24160;BMP280;62385;41.594;23.808;2022-07-26T08:57:42;95305.16;;;25.35
24160;BMP280;62385;41.594;23.808;2022-07-26T09:03:00;95308.25;;;25.62
24160;BMP280;62385;41.594;23.808;2022-07-26T09:05:29;95291.59;;;25.55
24160;BMP280;62385;41.594;23.808;2022-07-26T09:07:56;95315.59;;;25.91
24160;BMP280;62385;41.594;23.808;2022-07-26T09:10:23;95316.81;;;26.05
24160;BMP280;62385;41.594;23.808;2022-07-26T09:12:56;95303.91;;;25.84
24160;BMP280;62385;41.594;23.808;2022-07-26T09:15:25;95303.84;;;26.00
24160;BMP280;62385;41.594;23.808;2022-07-26T09:17:54;95296.44;;;25.95
24160;BMP280;62385;41.594;23.808;2022-07-26T09:23:07;95298.88;;;26.31
24160;BMP280;62385;41.594;23.808;2022-07-26T09:25:39;95292.38;;;26.29
24160;BMP280;62385;41.594;23.808;2022-07-26T09:28:32;95303.03;;;26.48
24160;BMP280;62385;41.594;23.808;2022-07-26T09:31:02;95290.91;;;26.28
24160;BMP280;62385;41.594;23.808;2022-07-26T09:33:45;95274.22;;;26.45
24160;BMP280;62385;41.594;23.808;2022-07-26T09:36:14;95273.72;;;26.64
24160;BMP280;62385;41.594;23.808;2022-07-26T09:38:44;95276.63;;;26.74
24160;BMP280;62385;41.594;23.808;2022-07-26T09:41:24;95287.59;;;26.72
24160;BMP280;62385;41.594;23.808;2022-07-26T09:44:00;95284.88;;;26.64
24160;BMP280;62385;41.594;23.808;2022-07-26T09:46:28;95291.75;;;26.89
24160;BMP280;62385;41.594;23.808;2022-07-26T09:48:55;95284.94;;;26.99
24160;BMP280;62385;41.594;23.808;2022-07-26T09:51:39;95284.41;;;26.76
24160;BMP280;62385;41.594;23.808;2022-07-26T09:54:08;95277.81;;;26.89
24160;BMP280;62385;41.594;23.808;2022-07-26T09:56:51;95280.94;;;27.10
24160;BMP280;62385;41.594;23.808;2022-07-26T09:59:20;95279.81;;;27.13
24160;BMP280;62385;41.594;23.808;2022-07-26T10:01:47;95268.78;;;27.15
24160;BMP280;62385;41.594;23.808;2022-07-26T10:04:13;95282.44;;;27.46
24160;BMP280;62385;41.594;23.808;2022-07-26T10:06:39;95276.19;;;27.38
24160;BMP280;62385;41.594;23.808;2022-07-26T10:09:07;95278.00;;;27.43
24160;BMP280;62385;41.594;23.808;2022-07-26T10:11:55;95262.06;;;27.18
24160;BMP280;62385;41.594;23.808;2022-07-26T10:19:56;95266.09;;;27.60
24160;BMP280;62385;41.594;23.808;2022-07-26T10:22:44;95263.50;;;27.72
24160;BMP280;62385;41.594;23.808;2022-07-26T10:27:57;95250.84;;;27.71
24160;BMP280;62385;41.594;23.808;2022-07-26T10:30:26;95256.81;;;27.85
24160;BMP280;62385;41.594;23.808;2022-07-26T10:32:58;95250.50;;;27.84
24160;BMP280;62385;41.594;23.808;2022-07-26T10:38:04;95245.63;;;27.57
24160;BMP280;62385;41.594;23.808;2022-07-26T10:40:30;95246.09;;;28.08
24160;BMP280;62385;41.594;23.808;2022-07-26T10:45:35;95234.78;;;28.16
24160;BMP280;62385;41.594;23.808;2022-07-26T10:48:09;95215.94;;;28.17
24160;BMP280;62385;41.594;23.808;2022-07-26T10:50:35;95225.44;;;28.04
24160;BMP280;62385;41.594;23.808;2022-07-26T10:53:02;95228.28;;;27.77
24160;BMP280;62385;41.594;23.808;2022-07-26T10:55:29;95218.75;;;28.17
24160;BMP280;62385;41.594;23.808;2022-07-26T10:57:54;95220.31;;;28.10
24160;BMP280;62385;41.594;23.808;2022-07-26T11:00:39;95210.63;;;28.11
24160;BMP280;62385;41.594;23.808;2022-07-26T11:03:04;95215.38;;;28.18
24160;BMP280;62385;41.594;23.808;2022-07-26T11:05:31;95205.16;;;28.03
24160;BMP280;62385;41.594;23.808;2022-07-26T11:08:06;95212.56;;;28.18
24160;BMP280;62385;41.594;23.808;2022-07-26T11:13:19;95191.34;;;28.52
24160;BMP280;62385;41.594;23.808;2022-07-26T11:15:50;95211.38;;;28.58
24160;BMP280;62385;41.594;23.808;2022-07-26T11:20:43;95179.00;;;28.55
24160;BMP280;62385;41.594;23.808;2022-07-26T11:23:26;95197.25;;;28.76
24160;BMP280;62385;41.594;23.808;2022-07-26T11:28:38;95187.53;;;28.96
24160;BMP280;62385;41.594;23.808;2022-07-26T11:31:06;95177.69;;;29.05
24160;BMP280;62385;41.594;23.808;2022-07-26T11:33:41;95180.50;;;28.95
24160;BMP280;62385;41.594;23.808;2022-07-26T11:36:07;95181.81;;;29.14
24160;BMP280;62385;41.594;23.808;2022-07-26T11:38:51;95178.09;;;29.21
24160;BMP280;62385;41.594;23.808;2022-07-26T11:41:21;95173.53;;;29.36
24160;BMP280;62385;41.594;23.808;2022-07-26T11:43:48;95167.00;;;29.33
24160;BMP280;62385;41.594;23.808;2022-07-26T11:46:16;95181.19;;;29.35
24160;BMP280;62385;41.594;23.808;2022-07-26T11:48:52;95173.22;;;29.41
24160;BMP280;62385;41.594;23.808;2022-07-26T11:51:19;95168.81;;;29.28
24160;BMP280;62385;41.594;23.808;2022-07-26T11:53:46;95176.72;;;29.52
24160;BMP280;62385;41.594;23.808;2022-07-26T11:56:16;95163.31;;;29.40
24160;BMP280;62385;41.594;23.808;2022-07-26T11:58:46;95153.19;;;29.25
24160;BMP280;62385;41.594;23.808;2022-07-26T12:01:14;95135.53;;;29.74
24160;BMP280;62385;41.594;23.808;2022-07-26T12:03:41;95160.50;;;29.60
24160;BMP280;62385;41.594;23.808;2022-07-26T12:06:09;95156.13;;;29.37
24160;BMP280;62385;41.594;23.808;2022-07-26T12:11:12;95148.03;;;30.14
24160;BMP280;62385;41.594;23.808;2022-07-26T12:13:54;95149.16;;;29.89
24160;BMP280;62385;41.594;23.808;2022-07-26T12:16:45;95135.53;;;29.74
24160;BMP280;62385;41.594;23.808;2022-07-26T12:21:52;95145.59;;;30.20
24160;BMP280;62385;41.594;23.808;2022-07-26T12:29:30;95126.78;;;30.32
24160;BMP280;62385;41.594;23.808;2022-07-26T12:32:15;95138.19;;;30.46
24160;BMP280;62385;41.594;23.808;2022-07-26T12:34:54;95133.22;;;29.92
24160;BMP280;62385;41.594;23.808;2022-07-26T12:37:20;95136.53;;;30.31
24160;BMP280;62385;41.594;23.808;2022-07-26T12:40:03;95130.44;;;30.78
24160;BMP280;62385;41.594;23.808;2022-07-26T12:45:18;95117.94;;;31.03
24160;BMP280;62385;41.594;23.808;2022-07-26T12:47:49;95119.38;;;30.92
24160;BMP280;62385;41.594;23.808;2022-07-26T12:50:20;95124.44;;;30.72
24160;BMP280;62385;41.594;23.808;2022-07-26T12:52:46;95118.91;;;31.07
24160;BMP280;62385;41.594;23.808;2022-07-26T12:55:15;95115.00;;;31.01
24160;BMP280;62385;41.594;23.808;2022-07-26T12:57:42;95111.41;;;31.45
24160;BMP280;62385;41.594;23.808;2022-07-26T13:00:12;95112.59;;;31.19
24160;BMP280;62385;41.594;23.808;2022-07-26T13:02:42;95100.78;;;30.75
24160;BMP280;62385;41.594;23.808;2022-07-26T13:05:12;95095.66;;;31.40
24160;BMP280;62385;41.594;23.808;2022-07-26T13:07:40;95101.84;;;31.15
24160;BMP280;62385;41.594;23.808;2022-07-26T13:10:07;95101.06;;;30.91
24160;BMP280;62385;41.594;23.808;2022-07-26T13:12:37;95093.97;;;30.90
24160;BMP280;62385;41.594;23.808;2022-07-26T13:15:04;95087.63;;;30.78
24160;BMP280;62385;41.594;23.808;2022-07-26T13:17:30;95098.72;;;30.87
24160;BMP280;62385;41.594;23.808;2022-07-26T13:19:58;95097.84;;;31.54
24160;BMP280;62385;41.594;23.808;2022-07-26T13:22:24;95099.06;;;31.51
24160;BMP280;62385;41.594;23.808;2022-07-26T13:24:49;95090.78;;;31.41
24160;BMP280;62385;41.594;23.808;2022-07-26T13:27:34;95084.75;;;31.11
24160;BMP280;62385;41.594;23.808;2022-07-26T13:30:01;95083.66;;;31.52
24160;BMP280;62385;41.594;23.808;2022-07-26T13:32:26;95090.66;;;31.27
24160;BMP280;62385;41.594;23.808;2022-07-26T13:34:52;95091.38;;;31.63
24160;BMP280;62385;41.594;23.808;2022-07-26T13:37:17;95094.72;;;32.09
24160;BMP280;62385;41.594;23.808;2022-07-26T13:39:43;95101.38;;;31.54
24160;BMP280;62385;41.594;23.808;2022-07-26T13:42:09;95085.56;;;30.90
24160;BMP280;62385;41.594;23.808;2022-07-26T13:44:36;95093.53;;;31.05
24160;BMP280;62385;41.594;23.808;2022-07-26T13:47:01;95087.22;;;31.17
24160;BMP280;62385;41.594;23.808;2022-07-26T13:49:27;95080.13;;;31.39
24160;BMP280;62385;41.594;23.808;2022-07-26T13:51:54;95076.47;;;31.49
24160;BMP280;62385;41.594;23.808;2022-07-26T13:54:30;95072.69;;;31.20
24160;BMP280;62385;41.594;23.808;2022-07-26T13:56:58;95085.13;;;31.17
24160;BMP280;62385;41.594;23.808;2022-07-26T13:59:24;95074.00;;;31.19
24160;BMP280;62385;41.594;23.808;2022-07-26T14:01:51;95081.31;;;31.83
24160;BMP280;62385;41.594;23.808;2022-07-26T14:04:17;95085.53;;;31.35
24160;BMP280;62385;41.594;23.808;2022-07-26T14:06:44;95073.38;;;30.97
24160;BMP280;62385;41.594;23.808;2022-07-26T14:09:10;95087.59;;;31.23
24160;BMP280;62385;41.594;23.808;2022-07-26T14:11:35;95080.63;;;31.24
24160;BMP280;62385;41.594;23.808;2022-07-26T14:14:02;95085.38;;;31.45
24160;BMP280;62385;41.594;23.808;2022-07-26T14:16:29;95074.06;;;31.55
24160;BMP280;62385;41.594;23.808;2022-07-26T14:18:56;95067.53;;;31.64
24160;BMP280;62385;41.594;23.808;2022-07-26T14:21:24;95067.50;;;31.88
24160;BMP280;62385;41.594;23.808;2022-07-26T14:23:50;95066.53;;;31.95
24160;BMP280;62385;41.594;23.808;2022-07-26T14:26:16;95063.09;;;32.34
24160;BMP280;62385;41.594;23.808;2022-07-26T14:28:42;95053.16;;;32.19
24160;BMP280;62385;41.594;23.808;2022-07-26T14:31:09;95058.81;;;31.95
24160;BMP280;62385;41.594;23.808;2022-07-26T14:33:34;95059.94;;;31.07
24160;BMP280;62385;41.594;23.808;2022-07-26T14:36:00;95061.88;;;32.37
24160;BMP280;62385;41.594;23.808;2022-07-26T14:38:26;95046.81;;;32.44
24160;BMP280;62385;41.594;23.808;2022-07-26T14:40:54;95062.63;;;32.26